Yakutat Airport
PAYA : now visible

Airfield :











YOU CAN JOIN US ON...

 
LOGIN :

Register | Disclaimer

   EN    FR    IT 

 









Legend :    VFR   Marginal VFR   IFR   Intensive IFR   Very Intensive IFR
Visi :
Ceiling :
>= 8 km
>= 3000ft
5 to 8 km
1000 to 3000 ft
1500m to 5 km
500 to 1000 ft
800 to 1500m
200 to 500 ft
< 800m
< 200 ft
Symbols :   Thunderstorms  Fog  Heavy snow  Heavy precipitations  Wind > 20 kt






- Airport Elevation : 33 ft


PAYA - Yakutat

CURRENT METAR :
  • 151753Z AUTO 07005KT 10SM FEW033 BKN046 OVC060 11/M01 A2984 RMK AO2 RAB22E31 SLP104 P0000 60000 T01061011 10122 20050 56012 TSNO

EXPIRED METARs :
  • 151653Z AUTO 08005KT 10SM BKN048 BKN065 11/M01 A2984 RMK AO2 SLP106 T01061011 TSNO
  • 151553Z AUTO 05007KT 10SM OVC048 08/M01 A2986 RMK AO2 SLP110 T00781011 TSNO

TAF PAYA
Valid from the 15 at 18:00 until the 16 at 18:00 UTC


151757Z 1518/1618 08005KT P6SM BKN050 BKN070 WS020/14030KT
FM161100 09009KT 6SM -RA OVC030 WS020/13035KT
FM161200 08008KT 4SM -RASN OVC025 AMD LTD TO CLD VIS AND WIND



MET'MAP, your aeronautical weather chart ! - Copyright ORBIFLY December 2007 - Disclaimer

ORBIFLY MET'MAP TEAM :

Programming & Development : Alexandra Zaïnal
Concept & original design : Baudouin d'Aumeries
Assistance for programming : Marc-Olivier Méhu
Technical & hardware support : Manuel Goepfert

Contact : metmap@orbifly.com




SOURCES & CREDITS :

   NOAA       Earth
Advisory